Time;durP1;ratioP1;P1;durP2;ratioP2;P2;SDS_P1;SDS_P2;PMS_P1;PMS_P2;Temp;Humidity;BMP_temperature;BMP_pressure;BME280_temperature;BME280_humidity;BME280_pressure;Samples;Min_cycle;Max_cycle;Signal;HPM_P1;HPM_P2
2024/02/21 00:01:04;;;;;;;69.75;27.95;;;;;;;8.17;100.00;101167.00;5048106;28;20895;-76
2024/02/21 00:03:29;;;;;;;;;;;;;;;8.21;100.00;101159.56;5046712;28;20132;-74
2024/02/21 00:05:54;;;;;;;64.05;25.92;;;;;;;8.29;100.00;101151.75;5029783;28;20042;-74
2024/02/21 00:08:19;;;;;;;56.27;23.40;;;;;;;8.38;100.00;101136.75;5047632;28;20657;-76
2024/02/21 00:10:45;;;;;;;54.17;21.83;;;;;;;8.29;100.00;101122.50;5021930;28;20025;-77
2024/02/21 00:13:10;;;;;;;60.97;23.10;;;;;;;8.38;100.00;101115.47;5045989;28;20041;-76
2024/02/21 00:15:36;;;;;;;59.90;24.13;;;;;;;8.36;100.00;101112.97;5044160;28;20029;-76
2024/02/21 00:18:01;;;;;;;58.13;23.13;;;;;;;8.34;100.00;101106.13;5044348;28;20653;-76
2024/02/21 00:20:26;;;;;;;54.17;23.73;;;;;;;8.36;100.00;101112.97;5044144;28;20488;-76
2024/02/21 00:22:52;;;;;;;54.28;24.35;;;;;;;8.45;100.00;101106.84;5028149;28;20052;-76
2024/02/21 00:25:17;;;;;;;59.08;24.58;;;;;;;8.25;100.00;101094.47;5044084;28;20036;-76
2024/02/21 00:27:43;;;;;;;63.60;25.25;;;;;;;8.40;100.00;101111.72;5027809;28;20028;-75
2024/02/21 00:30:09;;;;;;;63.00;24.77;;;;;;;8.43;100.00;101116.78;5044435;28;20029;-76
2024/02/21 00:32:34;;;;;;;50.70;24.98;;;;;;;8.38;100.00;101092.41;5044178;28;20041;-75
2024/02/21 00:35:01;;;;;;;58.10;25.13;;;;;;;8.52;100.00;101095.63;5044323;28;20044;-76
2024/02/21 00:37:26;;;;;;;;;;;;;;;8.46;100.00;101078.41;5044608;28;20090;-75
2024/02/21 00:39:51;;;;;;;68.28;24.20;;;;;;;8.34;100.00;101068.88;5044368;28;19995;-76
2024/02/21 00:42:18;;;;;;;71.07;24.27;;;;;;;8.52;100.00;101082.31;5045315;28;20514;-75
2024/02/21 00:44:43;;;;;;;63.00;25.52;;;;;;;8.29;100.00;101063.97;5045238;28;20263;-76
2024/02/21 00:47:10;;;;;;;65.20;24.23;;;;;;;8.35;100.00;101067.88;5044148;28;20384;-75
2024/02/21 00:49:35;;;;;;;54.33;25.48;;;;;;;8.43;100.00;101062.75;5045238;28;20654;-75
2024/02/21 00:52:01;;;;;;;67.60;27.70;;;;;;;8.34;100.00;101048.41;5043691;28;20021;-75
2024/02/21 00:54:26;;;;;;;66.13;24.23;;;;;;;8.50;100.00;101070.97;5044045;28;20032;-76
2024/02/21 00:56:51;;;;;;;61.20;25.02;;;;;;;8.28;100.00;101046.31;5044005;28;20036;-75
2024/02/21 00:59:18;;;;;;;76.00;27.00;;;;;;;8.47;100.00;101060.63;5043742;28;20049;-76
2024/02/21 01:01:43;;;;;;;69.22;25.73;;;;;;;8.47;100.00;101063.28;5045386;28;20651;-75
2024/02/21 01:04:10;;;;;;;72.83;25.03;;;;;;;8.40;100.00;101053.19;5043581;28;20061;-74
2024/02/21 01:06:35;;;;;;;;;;;;;;;8.22;100.00;101066.34;5042416;28;20029;-76
2024/02/21 01:09:00;;;;;;;61.95;22.85;;;;;;;8.26;100.00;101064.22;5045295;28;19916;-76
2024/02/21 01:11:26;;;;;;;57.37;25.63;;;;;;;8.39;100.00;101074.59;5043789;28;20120;-76
2024/02/21 01:13:51;;;;;;;62.43;26.17;;;;;;;8.29;100.00;101061.31;5042602;28;20048;-75
2024/02/21 01:16:16;;;;;;;61.53;26.57;;;;;;;8.26;100.00;101058.91;5046082;28;20354;-76
2024/02/21 01:18:42;;;;;;;72.13;27.40;;;;;;;8.26;100.00;101069.53;5048093;28;20061;-75
2024/02/21 01:21:07;;;;;;;83.00;26.60;;;;;;;8.23;100.00;101059.19;5046532;28;20036;-75
2024/02/21 01:23:34;;;;;;;74.57;27.77;;;;;;;8.17;100.00;101063.25;5031268;28;20388;-76
2024/02/21 01:26:00;;;;;;;71.75;28.83;;;;;;;8.29;100.00;101060.44;5046589;28;20040;-74
2024/02/21 01:28:25;;;;;;;73.65;27.88;;;;;;;8.24;100.00;101048.44;5045365;28;20039;-75
2024/02/21 01:30:51;;;;;;;60.77;25.70;;;;;;;8.34;100.00;101056.41;5046959;28;20027;-76
2024/02/21 01:33:17;;;;;;;;;;;;;;;8.31;100.00;101053.16;5031558;28;20439;-76
2024/02/21 01:35:42;;;;;;;69.55;26.15;;;;;;;8.10;100.00;101050.63;5048286;28;19917;-76
2024/02/21 01:38:08;;;;;;;91.57;28.77;;;;;;;8.27;100.00;101054.44;5048685;28;20036;-76
2024/02/21 01:40:33;;;;;;;74.00;26.50;;;;;;;8.26;100.00;101048.25;5047562;28;20033;-76
2024/02/21 01:42:58;;;;;;;67.47;28.40;;;;;;;8.32;100.00;101047.72;5040762;28;20281;-76
2024/02/21 01:45:24;;;;;;;66.23;27.13;;;;;;;8.27;100.00;101034.00;5046975;28;20090;-74
2024/02/21 01:47:49;;;;;;;75.57;27.23;;;;;;;8.30;100.00;101032.88;5048147;28;20111;-74
2024/02/21 01:50:16;;;;;;;61.90;25.60;;;;;;;8.12;100.00;101022.09;5047485;28;20039;-76
2024/02/21 01:52:46;;;;;;;55.65;23.90;;;;;;;8.15;100.00;101024.50;5049111;28;20029;-75
2024/02/21 01:55:13;;;;;;;53.88;24.95;;;;;;;8.31;100.00;101031.88;5049014;28;20484;-76
2024/02/21 01:57:40;;;;;;;63.30;25.15;;;;;;;8.21;100.00;101027.41;5047166;28;20841;-75
2024/02/21 02:00:08;;;;;;;54.78;24.52;;;;;;;8.18;100.00;101024.19;5047206;28;20036;-76
2024/02/21 02:02:37;;;;;;;56.53;22.70;;;;;;;8.12;100.00;101022.94;5048156;28;20373;-76
2024/02/21 02:05:04;;;;;;;56.95;22.60;;;;;;;8.06;100.00;101006.72;5047388;28;20447;-75
2024/02/21 02:07:29;;;;;;;52.10;21.75;;;;;;;8.07;100.00;100981.78;5049052;28;20490;-76
2024/02/21 02:09:55;;;;;;;54.33;21.77;;;;;;;8.03;100.00;100971.44;5048317;28;20032;-76
2024/02/21 02:12:20;;;;;;;53.10;20.67;;;;;;;8.14;100.00;100964.28;5048844;28;20124;-76
2024/02/21 02:14:46;;;;;;;51.72;21.35;;;;;;;8.18;100.00;100947.91;5047391;28;20055;-75
2024/02/21 02:17:11;;;;;;;52.07;20.73;;;;;;;8.18;100.00;100957.72;5030937;28;20083;-77
2024/02/21 02:19:37;;;;;;;47.63;20.35;;;;;;;8.30;100.00;100953.91;5045890;28;20404;-77
2024/02/21 02:22:11;;;;;;;46.20;20.37;;;;;;;8.29;100.00;100935.41;5046932;28;20112;-76
2024/02/21 02:24:36;;;;;;;53.88;20.75;;;;;;;8.36;100.00;100932.06;5041409;28;20039;-76
2024/02/21 02:27:02;;;;;;;46.15;19.75;;;;;;;8.30;100.00;100911.34;5047763;28;20021;-76
2024/02/21 02:29:27;;;;;;;41.97;18.70;;;;;;;8.29;100.00;100909.69;5039766;28;20037;-77
2024/02/21 02:31:52;;;;;;;40.57;19.53;;;;;;;8.39;100.00;100902.50;5046943;28;20080;-75
2024/02/21 02:34:18;;;;;;;49.17;19.33;;;;;;;8.23;100.00;100888.97;5029853;28;20032;-76
2024/02/21 02:36:43;;;;;;;45.63;19.43;;;;;;;8.41;100.00;100900.56;5047947;28;20032;-76
2024/02/21 02:39:08;;;;;;;42.73;18.90;;;;;;;8.38;100.00;100882.22;5048103;28;20086;-77
2024/02/21 02:41:37;;;;;;;48.50;19.47;;;;;;;8.46;100.00;100889.50;5047732;28;20028;-76
2024/02/21 02:44:02;;;;;;;38.95;17.42;;;;;;;8.52;100.00;100893.38;5047434;28;20025;-76
2024/02/21 02:46:28;;;;;;;38.20;16.98;;;;;;;8.53;100.00;100871.13;5047463;28;20079;-76
2024/02/21 02:48:53;;;;;;;43.20;18.03;;;;;;;8.53;100.00;100863.97;5046690;28;20106;-76
2024/02/21 02:51:19;;;;;;;36.45;17.08;;;;;;;8.51;100.00;100852.63;5045959;28;20063;-77
2024/02/21 02:53:44;;;;;;;43.00;20.03;;;;;;;8.45;100.00;100845.22;5047207;28;20040;-77
2024/02/21 02:56:14;;;;;;;40.37;18.23;;;;;;;8.40;100.00;100848.31;5046195;28;20029;-77
2024/02/21 02:58:40;;;;;;;38.78;17.63;;;;;;;8.50;100.00;100852.78;5046452;28;20124;-76
2024/02/21 03:01:07;;;;;;;46.47;17.33;;;;;;;8.52;100.00;100861.44;5047754;28;20119;-76
2024/02/21 03:03:32;;;;;;;44.80;18.88;;;;;;;8.48;100.00;100860.09;5045718;28;20024;-75
2024/02/21 03:05:57;;;;;;;37.73;17.07;;;;;;;8.56;100.00;100865.50;5046226;28;20037;-76
2024/02/21 03:08:23;;;;;;;43.67;20.63;;;;;;;8.59;100.00;100866.06;5046053;28;20071;-76
2024/02/21 03:10:48;;;;;;;45.50;20.13;;;;;;;8.74;100.00;100860.25;5046200;28;20032;-76
2024/02/21 03:13:13;;;;;;;42.20;18.73;;;;;;;8.60;100.00;100854.41;5047018;28;20044;-75
2024/02/21 03:15:39;;;;;;;41.43;19.70;;;;;;;8.51;100.00;100857.97;5046999;28;20041;-77
2024/02/21 03:18:04;;;;;;;42.33;19.13;;;;;;;8.69;100.00;100884.66;5045692;28;20045;-76
2024/02/21 03:20:30;;;;;;;45.15;18.25;;;;;;;8.61;100.00;100873.88;5042909;28;20026;-76
2024/02/21 03:22:55;;;;;;;43.13;18.07;;;;;;;8.58;100.00;100882.16;5044485;28;20041;-76
2024/02/21 03:25:20;;;;;;;40.97;19.90;;;;;;;8.59;100.00;100875.84;5040490;28;20076;-76
2024/02/21 03:27:46;;;;;;;40.00;17.90;;;;;;;8.44;100.00;100876.31;5044768;28;20056;-76
2024/02/21 03:30:12;;;;;;;45.40;18.30;;;;;;;8.45;100.00;100874.50;5046920;28;20028;-75
2024/02/21 03:32:39;;;;;;;43.95;18.05;;;;;;;8.56;100.00;100886.78;5046770;28;20037;-76
2024/02/21 03:35:05;;;;;;;33.95;17.27;;;;;;;8.51;100.00;100883.75;5040425;28;20109;-77
2024/02/21 03:37:30;;;;;;;;;;;;;;;8.52;100.00;100883.59;5044902;28;20035;-77
2024/02/21 03:39:55;;;;;;;43.70;19.23;;;;;;;8.51;100.00;100881.09;5046038;28;19908;-76
2024/02/21 03:42:21;;;;;;;39.60;16.00;;;;;;;8.40;100.00;100874.09;5045196;28;20090;-76
2024/02/21 03:44:46;;;;;;;36.70;15.67;;;;;;;8.48;100.00;100882.22;5046094;28;20071;-75
2024/02/21 03:47:11;;;;;;;31.00;15.30;;;;;;;8.56;100.00;100884.13;5046331;28;20032;-76
2024/02/21 03:49:37;;;;;;;32.57;14.93;;;;;;;8.51;100.00;100875.75;5028349;28;20438;-76
2024/02/21 03:52:03;;;;;;;29.55;14.30;;;;;;;8.52;100.00;100872.97;5027946;28;20313;-76
2024/02/21 03:54:28;;;;;;;35.17;13.65;;;;;;;8.48;100.00;100873.41;5027819;28;21118;-75
2024/02/21 03:56:53;;;;;;;26.17;13.80;;;;;;;8.58;100.00;100874.19;5044977;28;20654;-76
2024/02/21 03:59:19;;;;;;;32.50;13.40;;;;;;;8.41;100.00;100865.97;5036974;28;20037;-76
2024/02/21 04:01:44;;;;;;;25.03;13.23;;;;;;;8.45;100.00;100867.38;5021693;28;20033;-76
2024/02/21 04:04:10;;;;;;;25.17;12.80;;;;;;;8.58;100.00;100872.34;5036256;28;20056;-76
2024/02/21 04:06:36;;;;;;;26.25;12.10;;;;;;;8.44;100.00;100851.56;5027963;28;20035;-76
2024/02/21 04:09:02;;;;;;;25.67;12.43;;;;;;;8.36;100.00;100876.19;5028495;28;20024;-77
2024/02/21 04:11:27;;;;;;;24.10;12.10;;;;;;;8.41;100.00;100886.44;5046172;28;20032;-75
2024/02/21 04:13:53;;;;;;;25.43;12.73;;;;;;;8.34;100.00;100883.47;5044358;28;20039;-76
2024/02/21 04:16:18;;;;;;;29.87;12.07;;;;;;;8.39;100.00;100877.72;5044780;28;20144;-76
2024/02/21 04:18:43;;;;;;;29.30;12.53;;;;;;;8.39;100.00;100881.22;5044914;28;20271;-76
2024/02/21 04:21:10;;;;;;;26.23;11.43;;;;;;;8.40;100.00;100880.25;5045908;28;20086;-77
2024/02/21 04:23:35;;;;;;;22.27;10.93;;;;;;;8.40;100.00;100877.59;5027022;28;20065;-76
2024/02/21 04:26:01;;;;;;;21.83;7.87;;;;;;;8.31;100.00;100874.94;5038225;28;20122;-76
2024/02/21 04:28:26;;;;;;;18.13;9.00;;;;;;;8.40;100.00;100896.22;5041845;28;20079;-76
2024/02/21 04:30:51;;;;;;;10.47;6.07;;;;;;;8.11;100.00;100871.50;5044540;28;20115;-76
2024/02/21 04:33:17;;;;;;;6.43;4.07;;;;;;;8.24;100.00;100890.63;5044314;28;20029;-76
2024/02/21 04:35:42;;;;;;;6.33;1.60;;;;;;;7.78;100.00;100863.03;5045365;28;20382;-76
2024/02/21 04:38:07;;;;;;;5.05;1.08;;;;;;;7.87;100.00;100872.81;5045489;28;20199;-75
2024/02/21 04:40:33;;;;;;;4.93;1.25;;;;;;;7.85;100.00;100866.78;5028992;28;20025;-76
2024/02/21 04:42:59;;;;;;;7.95;1.60;;;;;;;7.75;100.00;100857.97;5044360;28;20040;-78
2024/02/21 04:45:24;;;;;;;4.97;1.40;;;;;;;7.88;100.00;100866.50;5045336;28;20510;-76
2024/02/21 04:47:49;;;;;;;3.87;1.10;;;;;;;7.85;100.00;100852.66;5035991;28;20480;-77
2024/02/21 04:50:15;;;;;;;5.90;1.30;;;;;;;7.80;100.00;100848.59;5043541;28;20032;-76
2024/02/21 04:52:40;;;;;;;5.85;1.70;;;;;;;8.00;100.00;100840.59;5043780;28;20037;-76
2024/02/21 04:55:07;;;;;;;3.72;1.33;;;;;;;7.97;100.00;100838.22;5044071;28;20491;-76
2024/02/21 04:57:32;;;;;;;2.70;1.25;;;;;;;7.92;100.00;100833.34;5045083;28;20069;-76
2024/02/21 04:59:58;;;;;;;5.25;1.95;;;;;;;8.02;100.00;100833.31;5045493;28;20108;-76
2024/02/21 05:02:24;;;;;;;6.67;1.23;;;;;;;7.89;100.00;100816.81;5043835;28;20052;-75
2024/02/21 05:04:49;;;;;;;7.57;1.23;;;;;;;7.91;100.00;100826.31;5043985;28;20051;-76
2024/02/21 05:07:15;;;;;;;6.90;2.42;;;;;;;7.85;100.00;100836.72;5044899;28;20476;-76
2024/02/21 05:09:42;;;;;;;8.02;2.17;;;;;;;7.87;100.00;100835.59;5042944;28;20492;-76
2024/02/21 05:12:08;;;;;;;10.15;2.00;;;;;;;7.83;100.00;100840.34;5045184;28;20088;-75
2024/02/21 05:14:33;;;;;;;9.93;2.08;;;;;;;7.86;100.00;100833.91;5044856;28;20098;-76
2024/02/21 05:16:59;;;;;;;6.22;2.85;;;;;;;7.78;100.00;100820.50;5027285;28;20080;-77
2024/02/21 05:19:24;;;;;;;16.67;2.38;;;;;;;7.91;100.00;100826.31;5045244;28;20451;-76
2024/02/21 05:21:50;;;;;;;12.17;1.60;;;;;;;7.96;100.00;100829.41;5043979;28;20033;-75
2024/02/21 05:24:15;;;;;;;7.77;1.60;;;;;;;8.00;100.00;100836.09;5041405;28;20425;-76
2024/02/21 05:26:40;;;;;;;6.00;1.47;;;;;;;8.03;100.00;100825.19;5043215;28;20499;-75
2024/02/21 05:29:06;;;;;;;14.10;2.37;;;;;;;8.00;100.00;100814.00;5043963;28;20048;-76
2024/02/21 05:31:50;;;;;;;13.10;2.03;;;;;;;7.98;100.00;100810.63;5043544;28;20094;-75
2024/02/21 05:34:15;;;;;;;11.07;2.28;;;;;;;8.01;100.00;100815.69;5044885;28;20040;-76
2024/02/21 05:36:40;;;;;;;5.20;1.53;;;;;;;7.99;100.00;100813.16;5044744;28;20032;-75
2024/02/21 05:39:06;;;;;;;4.57;1.40;;;;;;;7.96;100.00;100816.13;5043934;28;20032;-76
2024/02/21 05:41:31;;;;;;;11.67;2.13;;;;;;;7.88;100.00;100831.94;5045081;28;20110;-76
2024/02/21 05:43:57;;;;;;;9.37;2.60;;;;;;;7.86;100.00;100841.88;5045345;28;20279;-76
2024/02/21 05:46:22;;;;;;;11.73;2.70;;;;;;;7.90;100.00;100842.44;5044013;28;20095;-75
2024/02/21 05:48:47;;;;;;;9.77;3.07;;;;;;;7.94;100.00;100842.00;5043218;28;20045;-75
2024/02/21 05:51:13;;;;;;;10.90;2.67;;;;;;;7.97;100.00;100836.41;5043856;28;20048;-75
2024/02/21 05:53:40;;;;;;;8.57;2.93;;;;;;;7.87;100.00;100838.25;5043522;28;20051;-76
2024/02/21 05:56:13;;;;;;;18.65;3.20;;;;;;;7.94;100.00;100839.34;5036820;28;20032;-75
2024/02/21 05:58:39;;;;;;;8.57;2.63;;;;;;;7.89;100.00;100833.63;5043099;28;20045;-76
2024/02/21 06:01:05;;;;;;;15.20;2.70;;;;;;;7.83;100.00;100831.53;5042994;28;20029;-76
2024/02/21 06:03:30;;;;;;;14.73;2.97;;;;;;;7.75;100.00;100823.41;5039790;28;20037;-75
2024/02/21 06:05:56;;;;;;;12.95;3.28;;;;;;;7.75;100.00;100815.44;5048793;28;20078;-75
2024/02/21 06:08:21;;;;;;;15.80;2.73;;;;;;;7.63;100.00;100805.97;5044915;28;20033;-76
2024/02/21 06:10:48;;;;;;;15.90;2.70;;;;;;;7.64;100.00;100797.03;5047168;28;20267;-75
2024/02/21 06:13:14;;;;;;;17.27;3.78;;;;;;;7.69;100.00;100790.28;5047690;28;20290;-74
2024/02/21 06:15:39;;;;;;;20.75;3.63;;;;;;;7.65;100.00;100801.34;5030132;28;20022;-75
2024/02/21 06:18:04;;;;;;;15.33;4.33;;;;;;;7.58;100.00;100807.22;5044798;28;20038;-76
2024/02/21 06:20:30;;;;;;;9.13;2.87;;;;;;;7.52;100.00;100810.44;5045879;28;20033;-76
2024/02/21 06:22:55;;;;;;;12.20;2.90;;;;;;;7.67;100.00;100828.63;5050328;28;20029;-74
2024/02/21 06:25:20;;;;;;;6.80;2.00;;;;;;;7.64;100.00;100815.63;5043416;28;20346;-76
2024/02/21 06:27:46;;;;;;;12.17;3.37;;;;;;;7.55;100.00;100810.16;5047642;28;20118;-76
2024/02/21 06:30:11;;;;;;;11.83;3.37;;;;;;;7.69;100.00;100824.00;5048978;28;20048;-76
2024/02/21 06:32:37;;;;;;;11.48;2.70;;;;;;;7.75;100.00;100836.69;5045950;28;20269;-76
2024/02/21 06:35:04;;;;;;;7.05;3.30;;;;;;;7.77;100.00;100834.75;5047267;28;20064;-77
2024/02/21 06:37:30;;;;;;;17.02;3.47;;;;;;;7.77;100.00;100845.38;5046780;28;20025;-76
2024/02/21 06:39:55;;;;;;;15.30;3.22;;;;;;;7.92;100.00;100853.78;5049425;28;20043;-77
2024/02/21 06:42:21;;;;;;;13.30;4.88;;;;;;;7.81;100.00;100836.16;5043002;28;20094;-77
2024/02/21 06:44:46;;;;;;;13.20;4.00;;;;;;;7.86;100.00;100838.38;5042707;28;20100;-77
2024/02/21 06:47:12;;;;;;;22.27;4.57;;;;;;;7.80;100.00;100843.28;5045238;28;20044;-75
2024/02/21 06:49:37;;;;;;;17.38;4.43;;;;;;;7.86;100.00;100849.84;5038572;28;20048;-77
2024/02/21 06:52:04;;;;;;;11.03;3.87;;;;;;;7.80;100.00;100845.94;5042064;28;20029;-77
2024/02/21 06:54:30;;;;;;;18.70;4.93;;;;;;;7.86;100.00;100855.16;5041672;28;20307;-76
2024/02/21 06:56:55;;;;;;;17.73;4.57;;;;;;;7.88;100.00;100847.88;5046067;28;20052;-77
2024/02/21 06:59:21;;;;;;;12.07;3.47;;;;;;;7.85;100.00;100840.19;5048889;28;20028;-76
2024/02/21 07:01:53;;;;;;;20.70;6.50;;;;;;;7.86;100.00;100843.69;5043498;28;20028;-75
2024/02/21 07:04:18;;;;;;;26.13;5.50;;;;;;;7.90;100.00;100834.47;5041439;28;20096;-76
2024/02/21 07:06:43;;;;;;;18.73;5.10;;;;;;;7.91;100.00;100828.16;5039208;28;20042;-74
2024/02/21 07:09:09;;;;;;;30.73;5.43;;;;;;;7.88;100.00;100813.31;5044354;28;20072;-74
2024/02/21 07:11:34;;;;;;;27.40;4.70;;;;;;;7.93;100.00;100807.59;5039627;28;20264;-76
2024/02/21 07:13:59;;;;;;;24.70;5.83;;;;;;;7.89;100.00;100796.41;5036662;28;20036;-76
2024/02/21 07:16:26;;;;;;;21.70;4.40;;;;;;;7.95;100.00;100797.66;5046309;28;20037;-77
2024/02/21 07:18:51;;;;;;;26.50;6.28;;;;;;;8.06;100.00;100796.66;5032822;28;20037;-77
2024/02/21 07:21:17;;;;;;;21.42;4.47;;;;;;;8.25;100.00;100797.41;5045066;28;20187;-76
2024/02/21 07:23:42;;;;;;;20.07;5.10;;;;;;;8.24;100.00;100779.78;5040972;28;20041;-75
2024/02/21 07:26:08;;;;;;;32.43;5.07;;;;;;;8.12;100.00;100764.13;5043698;28;20365;-77
2024/02/21 07:28:33;;;;;;;27.60;6.33;;;;;;;8.14;100.00;100764.84;5024630;28;20288;-76
2024/02/21 07:30:59;;;;;;;28.93;5.10;;;;;;;8.02;100.00;100735.75;5024825;28;20395;-74
2024/02/21 07:33:24;;;;;;;20.02;5.13;;;;;;;7.89;100.00;100716.66;5040841;28;20044;-76
2024/02/21 07:35:50;;;;;;;20.57;5.03;;;;;;;7.92;100.00;100684.47;5044853;28;20045;-77
2024/02/21 07:38:18;;;;;;;23.47;4.67;;;;;;;7.85;100.00;100683.38;5034791;28;20037;-76
2024/02/21 07:40:44;;;;;;;26.85;5.28;;;;;;;8.10;100.00;100692.50;5042057;28;20080;-76
2024/02/21 07:43:10;;;;;;;19.65;3.72;;;;;;;8.36;100.00;100682.00;5041976;28;20442;-77
2024/02/21 07:45:35;;;;;;;24.07;5.83;;;;;;;8.39;100.00;100640.94;5023032;28;20041;-77
2024/02/21 07:48:00;;;;;;;26.30;6.10;;;;;;;8.47;100.00;100637.56;5042858;28;20035;-77
2024/02/21 07:50:26;;;;;;;18.83;4.60;;;;;;;8.49;100.00;100639.06;5040118;28;20040;-76
2024/02/21 07:52:52;;;;;;;31.42;7.32;;;;;;;8.82;100.00;100664.16;5042340;28;20045;-77
2024/02/21 07:55:17;;;;;;;24.37;5.07;;;;;;;9.35;100.00;100688.22;5028101;28;20051;-75
2024/02/21 07:57:42;;;;;;;28.23;6.75;;;;;;;9.32;100.00;100629.91;5047573;28;20087;-77
2024/02/21 08:00:10;;;;;;;18.37;5.07;;;;;;;9.73;100.00;100634.47;5043646;28;20157;-75
2024/02/21 08:02:39;;;;;;;29.83;6.25;;;;;;;9.77;100.00;100562.19;5026810;28;20041;-74
2024/02/21 08:05:04;;;;;;;13.90;4.97;;;;;;;9.41;100.00;100485.06;5042524;28;20581;-76
2024/02/21 08:07:30;;;;;;;31.35;6.45;;;;;;;9.37;100.00;100462.44;5040752;28;20485;-77
2024/02/21 08:09:56;;;;;;;34.15;6.57;;;;;;;9.27;100.00;100436.75;5043721;28;20090;-77
2024/02/21 08:12:21;;;;;;;17.08;5.25;;;;;;;9.49;100.00;100450.47;5025854;28;20041;-76
2024/02/21 08:14:47;;;;;;;20.00;4.80;;;;;;;9.80;100.00;100421.38;5041237;28;20033;-77
2024/02/21 08:17:12;;;;;;;20.90;4.83;;;;;;;10.33;100.00;100395.22;5041753;28;20502;-76
2024/02/21 08:19:37;;;;;;;15.30;5.43;;;;;;;10.98;100.00;100357.63;5050480;28;20907;-76
2024/02/21 08:22:03;;;;;;;22.90;5.57;;;;;;;11.56;100.00;100277.06;5042762;28;20582;-77
2024/02/21 08:24:28;;;;;;;22.00;4.50;;;;;;;11.28;100.00;100065.69;5041858;28;20039;-74
2024/02/21 08:26:54;;;;;;;30.63;4.70;;;;;;;11.14;100.00;99960.47;5026029;28;20083;-74
2024/02/21 08:29:19;;;;;;;29.97;6.40;;;;;;;11.82;100.00;99990.47;5042703;28;20079;-76
2024/02/21 08:31:44;;;;;;;23.37;4.73;;;;;;;12.30;100.00;99837.41;5019134;28;20029;-77
2024/02/21 08:34:10;;;;;;;20.57;4.50;;;;;;;12.28;100.00;99716.34;5041611;28;20087;-76
2024/02/21 08:36:36;;;;;;;19.87;4.70;;;;;;;12.74;100.00;99657.63;5040598;28;20539;-77
2024/02/21 08:39:03;;;;;;;18.95;4.40;;;;;;;13.45;100.00;99632.09;5041198;28;20033;-76
2024/02/21 08:41:31;;;;;;;19.02;4.35;;;;;;;13.90;100.00;99485.47;5044011;28;20041;-77
2024/02/21 08:43:56;;;;;;;29.23;6.85;;;;;;;13.56;100.00;99261.44;5040410;28;20037;-77
2024/02/21 08:46:23;;;;;;;26.87;4.97;;;;;;;14.07;100.00;99302.47;5037531;28;20384;-76
2024/02/21 08:48:49;;;;;;;29.23;5.05;;;;;;;14.55;100.00;99179.09;5021812;28;20271;-76
2024/02/21 08:51:14;;;;;;;27.50;5.45;;;;;;;14.98;100.00;99072.47;5040126;28;20039;-76
2024/02/21 08:53:40;;;;;;;19.60;4.73;;;;;;;13.42;100.00;98605.84;5036842;28;20061;-78
2024/02/21 08:56:07;;;;;;;34.00;6.32;;;;;;;14.26;100.00;99022.31;5038823;28;20385;-76
2024/02/21 08:58:32;;;;;;;18.58;4.45;;;;;;;14.66;100.00;98902.75;5038744;28;20033;-76
2024/02/21 09:00:58;;;;;;;32.70;5.88;;;;;;;14.43;100.00;98785.41;5040300;28;20866;-78
2024/02/21 09:03:23;;;;;;;17.90;5.00;;;;;;;14.36;100.00;98576.16;5035056;28;20037;-77
2024/02/21 09:05:49;;;;;;;21.50;4.87;;;;;;;14.81;100.00;98673.94;5037376;28;20034;-78
2024/02/21 09:08:14;;;;;;;20.52;5.05;;;;;;;14.96;100.00;98690.31;5037630;28;20075;-77
2024/02/21 09:10:40;;;;;;;19.60;3.70;;;;;;;15.03;100.00;98596.97;5034995;28;20121;-76
2024/02/21 09:13:05;;;;;;;17.00;4.03;;;;;;;15.30;97.60;98473.44;5035091;28;20033;-75
2024/02/21 09:15:31;;;;;;;19.45;3.65;;;;;;;14.97;95.40;98319.31;5033944;28;20067;-76
2024/02/21 09:17:57;;;;;;;21.75;5.72;;;;;;;15.04;96.74;98603.16;5037952;28;20065;-78
2024/02/21 09:20:22;;;;;;;18.03;3.67;;;;;;;15.00;94.11;98425.47;5021906;28;20064;-78
2024/02/21 09:22:47;;;;;;;12.80;4.23;;;;;;;15.38;93.52;98542.09;5044256;28;20041;-76
2024/02/21 09:25:13;;;;;;;20.20;3.33;;;;;;;15.43;90.63;98434.63;5041227;28;20033;-76
2024/02/21 09:27:39;;;;;;;21.67;3.60;;;;;;;15.83;89.04;98442.38;5043077;28;20388;-77
2024/02/21 09:30:05;;;;;;;18.33;4.32;;;;;;;15.51;88.39;98385.78;5041499;28;20362;-77
2024/02/21 09:32:32;;;;;;;17.58;4.05;;;;;;;15.16;86.84;98239.16;5039216;28;20043;-77
2024/02/21 09:34:57;;;;;;;24.38;5.00;;;;;;;15.98;86.94;98570.91;5038095;28;20029;-77
2024/02/21 09:37:23;;;;;;;21.23;4.07;;;;;;;15.33;84.14;98153.03;5037600;28;20314;-76
2024/02/21 09:39:50;;;;;;;15.50;3.07;;;;;;;15.57;84.85;98430.50;5042501;28;20069;-77
2024/02/21 09:42:20;;;;;;;13.20;4.05;;;;;;;15.38;84.27;98314.41;5041263;28;20052;-76
2024/02/21 09:44:46;;;;;;;20.13;3.50;;;;;;;15.78;83.69;98409.22;5039650;28;20037;-76
2024/02/21 09:47:22;;;;;;;22.15;4.20;;;;;;;15.67;82.10;98251.47;5010721;28;20489;-76
2024/02/21 09:49:47;;;;;;;21.67;4.93;;;;;;;15.10;82.05;98162.28;5040882;28;20194;-75
2024/02/21 09:52:14;;;;;;;20.10;3.87;;;;;;;15.19;82.39;98262.03;5042533;28;20139;-77
2024/02/21 09:54:44;;;;;;;18.90;4.05;;;;;;;15.49;84.42;98560.00;5040577;28;20159;-76
2024/02/21 09:57:09;;;;;;;15.50;3.10;;;;;;;15.93;82.61;98522.41;5041326;28;20403;-76
2024/02/21 09:59:35;;;;;;;23.57;4.37;;;;;;;16.22;81.03;98444.94;5038751;28;20029;-77
2024/02/21 10:02:01;;;;;;;22.10;4.43;;;;;;;15.46;80.32;98153.69;5044866;28;20037;-76
2024/02/21 10:04:27;;;;;;;17.23;4.53;;;;;;;15.11;82.32;98314.38;5044600;28;20167;-76
2024/02/21 10:06:56;;;;;;;15.02;4.82;;;;;;;15.12;84.37;98614.28;5048955;28;20551;-76
2024/02/21 10:09:27;;;;;;;26.08;4.10;;;;;;;15.45;83.19;98534.66;5042839;28;20037;-76
2024/02/21 10:11:53;;;;;;;16.73;3.55;;;;;;;14.22;83.45;98242.84;5024328;28;20040;-75
2024/02/21 10:14:19;;;;;;;20.08;4.13;;;;;;;14.03;85.50;98496.38;5039597;28;20033;-77
2024/02/21 10:16:47;;;;;;;21.93;4.33;;;;;;;13.89;87.22;98636.13;5038515;28;20170;-76
2024/02/21 10:19:19;;;;;;;20.67;4.10;;;;;;;12.53;87.96;98277.38;5041718;28;20037;-76
2024/02/21 10:21:58;;;;;;;25.52;5.00;;;;;;;12.86;92.85;98884.59;5026146;28;20029;-76
2024/02/21 10:24:28;;;;;;;18.23;4.50;;;;;;;13.22;94.65;99059.00;5040043;28;20036;-76
2024/02/21 10:27:07;;;;;;;23.73;4.63;;;;;;;13.46;94.06;99063.53;5040374;28;20276;-78
2024/02/21 10:29:36;;;;;;;18.20;4.30;;;;;;;14.20;94.98;99302.34;5037641;28;20041;-76
2024/02/21 10:32:12;;;;;;;10.00;2.70;;;;;;;14.15;94.09;99138.50;5042284;28;20028;-77
2024/02/21 10:34:39;;;;;;;22.02;3.88;;;;;;;13.68;94.55;99055.06;5039555;28;20029;-77
2024/02/21 10:37:08;;;;;;;21.70;2.97;;;;;;;13.39;96.32;99111.03;5024001;28;20472;-76
2024/02/21 10:39:37;;;;;;;11.60;3.15;;;;;;;13.33;96.72;99111.91;5029698;28;20034;-76
2024/02/21 10:42:03;;;;;;;20.45;4.28;;;;;;;12.77;96.92;98976.97;5046856;28;20033;-77
2024/02/21 10:44:30;;;;;;;20.20;4.07;;;;;;;13.16;97.08;99100.06;5039044;28;20099;-76
2024/02/21 10:46:56;;;;;;;16.95;4.10;;;;;;;14.06;96.07;99205.03;5039471;28;20025;-76
2024/02/21 10:49:30;;;;;;;14.13;4.53;;;;;;;14.29;94.22;99161.44;5041223;28;20438;-77
2024/02/21 10:52:12;;;;;;;21.35;3.70;;;;;;;14.14;93.05;98973.97;5044957;28;20090;-76
2024/02/21 10:55:07;;;;;;;19.48;4.25;;;;;;;14.05;93.81;99014.78;5042397;28;20029;-78
2024/02/21 10:57:33;;;;;;;23.38;3.80;;;;;;;13.84;91.80;98837.19;5027007;28;20041;-78
2024/02/21 10:59:59;;;;;;;24.25;4.57;;;;;;;14.93;92.34;99166.41;5043678;28;20044;-76
2024/02/21 11:02:28;;;;;;;16.20;5.32;;;;;;;15.17;89.86;98974.56;5039491;28;20025;-76
2024/02/21 11:04:54;;;;;;;17.92;3.13;;;;;;;15.03;89.13;98886.34;5041374;28;20037;-76
2024/02/21 11:07:20;;;;;;;;;;;;;;;14.82;89.37;98847.47;5047116;28;20032;-76
2024/02/21 11:09:54;;;;;;;20.92;4.45;;;;;;;15.12;88.70;98914.50;5039066;28;19913;-76
2024/02/21 11:12:23;;;;;;;13.38;3.50;;;;;;;15.62;87.97;98979.25;5038302;28;20040;-76